Roundhead, Ohio
Current Conditions -  °F | °C
As of 5:53 AM on Sunday 26 Oct 2014 (Local Time) from KAOH Reporting Station
Clear Clear  
Wind Chill:   Ceiling: Unl
Heat Index:   Visibility: 10mi
Dew Point:   Wind: 6mph
Humidity: 63%   Direction: 280°W
Pressure: 29.94"   Gusts: NA
Location:  40.56°N, 83.84°W
Report Text: KAOH 260953Z AUTO 28005KT 10SM CLR 08/01 A2994 RMK AO2 SLP138 T00780011
Loading
Personal Weather Stations






























Interactive Weather Map
Tropical Storm Tracking
New forecast layout! Learn more

10-Day Weather Forecast

Advertisements
Track Severe Weather on mobile